Flight Track Log - Related Links

Times and Time Zones

All times are in EDT time to prevent confusion due to time zone crossing. See the EJM303 flight status page for this flight to view local times or setup timezone preferences in your user account.

Time Position Orientation Groundspeed Altitude Reporting Facility
EDT Latitude Longitude Course Direction KTS MPH feet Rate Location/Type
Mon 02:11:52 PM 40.0042 -82.9186 270° West 167 192 1,500  Level Indianapolis Center
Mon 02:12:35 PM 40.0044 -82.9731 270° West 230 265 3,600 3,000 Climbing Indianapolis Center
Mon 02:12:58 PM 40.0039 -83.0067 269° West 232 267 4,800 3,388 Climbing Indianapolis Center
Mon 02:14:00 PM 40.0528 -83.0506 326° Northwest 256 295 8,400 3,242 Climbing Indianapolis Center
Mon 02:15:02 PM 40.1061 -82.9850 43° Northeast 260 299 11,500 2,683 Climbing Indianapolis Center
Mon 02:16:03 PM 40.1653 -82.9097 44° Northeast 292 336 13,900 2,634 Climbing Indianapolis Center
Mon 02:17:05 PM 40.2311 -82.8294 43° Northeast 319 367 16,900 2,855 Climbing Indianapolis Center
Mon 02:18:07 PM 40.3050 -82.7356 44° Northeast 330 380 19,800 2,516 Climbing Indianapolis Center
Mon 02:19:09 PM 40.3772 -82.6467 43° Northeast 350 403 22,100 2,226 Climbing Indianapolis Center
Mon 02:20:11 PM 40.4586 -82.5722 35° Northeast 361 415 24,400 2,195 Climbing Indianapolis Center
Mon 02:21:12 PM 40.5567 -82.5281 19° North 367 422 26,600 2,390 Climbing Indianapolis Center
Mon 02:22:14 PM 40.6556 -82.4847 18° North 369 425 29,300 2,032 Climbing Indianapolis Center
Mon 02:23:16 PM 40.7528 -82.4400 19° North 367 422 30,800 2,032 Climbing Indianapolis Center
Mon 02:24:18 PM 40.8500 -82.3953 19° North 365 420 33,500 2,177 Climbing Indianapolis Center
Mon 02:25:20 PM 40.9419 -82.3536 19° North 349 402 35,300 1,220 Climbing Indianapolis Center
Mon 02:26:21 PM 41.0400 -82.3092 19° North 353 406 36,000 347 Climbing Cleveland Center
Mon 02:27:21 PM 41.1431 -82.2622 19° North 365 420 36,000  Level Cleveland Center
Mon 02:28:21 PM 41.2542 -82.2128 18° North 397 457 36,000 450 Level Cleveland Center
Mon 02:29:21 PM 41.3553 -82.1378 29° Northeast 413 475 36,900 500 Climbing Cleveland Center
Mon 02:30:21 PM 41.4178 -81.9842 61° Northeast 407 468 37,000 50 Climbing Cleveland Center
Mon 02:31:22 PM 41.4592 -81.8244 71° East 419 482 37,000  Level Cleveland Center
Mon 02:32:21 PM 41.5025 -81.6644 70° East 446 513 37,000  Level Cleveland Center
Mon 02:33:21 PM 41.5478 -81.5042 69° East 452 520 37,000  Level Cleveland Center
Mon 02:34:21 PM 41.5925 -81.3467 69° East 452 520 37,000  Level Cleveland Center
Mon 02:35:21 PM 41.6331 -81.1997 70° East 452 520 37,000  Level Cleveland Center
Mon 02:36:21 PM 41.6756 -81.0419 70° East 459 528 37,000  Level Cleveland Center
Mon 02:37:21 PM 41.7219 -80.8808 69° East 459 528 37,000  Level Cleveland Center
Mon 02:38:21 PM 41.7639 -80.7250 70° East 449 517 37,000  Level Cleveland Center
Mon 02:39:21 PM 41.8058 -80.5692 70° East 447 514 37,000  Level Cleveland Center
Mon 02:40:21 PM 41.8494 -80.4075 70° East 447 514 37,000  Level Cleveland Center
Mon 02:41:21 PM 41.8969 -80.2344 70° East 447 514 37,000  Level Cleveland Center
Mon 02:42:21 PM 41.9400 -80.0750 70° East 452 520 37,000  Level Cleveland Center
Mon 02:43:21 PM 41.9831 -79.9183 70° East 447 514 37,000  Level Cleveland Center
Mon 02:44:21 PM 42.0258 -79.7586 70° East 447 514 37,000  Level Cleveland Center
Mon 02:45:21 PM 42.0683 -79.5986 70° East 452 520 37,000  Level Cleveland Center
Mon 02:46:21 PM 42.1106 -79.4356 71° East 452 520 37,000  Level Cleveland Center
Mon 02:47:21 PM 42.1506 -79.2725 72° East 452 520 37,000  Level Cleveland Center
Mon 02:48:21 PM 42.1903 -79.1119 71° East 452 520 37,000  Level Cleveland Center
Mon 02:49:21 PM 42.2131 -78.9431 80° East 446 513 37,000  Level Cleveland Center
Mon 02:50:21 PM 42.2356 -78.7717 80° East 451 519 37,000  Level Cleveland Center
Mon 02:51:21 PM 42.2578 -78.6025 80° East 456 525 37,000  Level Cleveland Center
Mon 02:52:21 PM 42.2775 -78.4308 81° East 456 525 37,000  Level Cleveland Center
Mon 02:53:21 PM 42.2992 -78.2586 80° East 456 525 37,000  Level Cleveland Center
Mon 02:54:21 PM 42.3206 -78.0839 81° East 461 531 37,000  Level Cleveland Center
Mon 02:55:21 PM 42.3397 -77.9117 81° East 466 536 37,000  Level Cleveland Center
Mon 02:56:21 PM 42.3625 -77.7364 80° East 466 536 37,000  Level Cleveland Center
Mon 02:57:21 PM 42.3811 -77.5669 81° East 466 536 37,000  Level Cleveland Center
Mon 02:59:01 PM 42.4075 -77.3339 81° East 461 531 37,000  Level Boston Center
Mon 03:00:01 PM 42.4308 -77.1272 81° East 461 531 37,000  Level Boston Center
Mon 03:01:13 PM 42.4481 -76.9569 82° East 461 531 37,000  Level Boston Center
Mon 03:02:13 PM 42.4728 -76.7503 81° East 461 531 37,000  Level Boston Center
Mon 03:03:13 PM 42.4897 -76.5797 82° East 461 531 37,000  Level Boston Center
Mon 03:04:13 PM 42.5083 -76.4061 82° East 461 531 37,000  Level Boston Center
Mon 03:05:25 PM 42.5272 -76.2156 82° East 461 531 37,000  Level Boston Center
Mon 03:06:25 PM 42.5508 -76.0056 81° East 466 536 37,000  Level Boston Center
Mon 03:07:25 PM 42.5667 -75.8317 83° East 466 536 37,000  Level Boston Center
Mon 03:08:25 PM 42.5842 -75.6550 82° East 466 536 37,000  Level Boston Center
Mon 03:09:25 PM 42.5994 -75.4781 83° East 466 536 37,000 -750 Level Boston Center
Mon 03:10:25 PM 42.6186 -75.3039 81° East 466 536 35,500 -1,850 Descending Boston Center
Mon 03:11:25 PM 42.6333 -75.1297 83° East 461 531 33,300 -2,000 Descending Boston Center
Mon 03:12:25 PM 42.6494 -74.9667 82° East 448 516 31,500 -1,800 Descending Boston Center
Mon 03:13:25 PM 42.6614 -74.8061 84° East 436 502 29,700 -1,250 Descending Boston Center
Mon 03:14:25 PM 42.6772 -74.6344 83° East 442 509 29,000 -350 Descending Boston Center
Mon 03:15:25 PM 42.6931 -74.4569 83° East 452 520 29,000  Level Boston Center
Mon 03:16:25 PM 42.7086 -74.2794 83° East 467 537 29,000  Level Boston Center
Mon 03:17:25 PM 42.7239 -74.0992 83° East 474 545 29,000  Level Boston Center
Mon 03:18:25 PM 42.7367 -73.9214 84° East 479 551 29,000 -50 Level Boston Center
Mon 03:19:25 PM 42.7411 -73.7378 88° East 479 551 28,900 -1,000 Descending Boston Center
Mon 03:20:25 PM 42.7242 -73.5650 98° East 479 551 27,000 -1,950 Descending Boston Center
Mon 03:21:25 PM 42.7050 -73.3894 98° East 479 551 25,000 -1,500 Descending Boston Center
Mon 03:22:25 PM 42.6875 -73.2253 98° East 461 531 24,000 -500 Descending Boston Center
Mon 03:23:25 PM 42.6675 -73.0528 99° East 454 522 24,000  Level Boston Center
Mon 03:24:25 PM 42.6497 -72.8889 98° East 469 540 24,000  Level Boston Center
Mon 03:25:25 PM 42.6294 -72.7167 99° East 469 540 24,000 -850 Level Boston Center
Mon 03:26:25 PM 42.6131 -72.5586 98° East 452 520 22,300 -2,250 Descending Boston Center
Mon 03:27:25 PM 42.5881 -72.3694 100° East 452 520 19,500 -3,050 Descending Boston Center
Mon 03:28:25 PM 42.5711 -72.2569 102° East 411 473 16,200 -2,950 Descending Boston Center
Mon 03:29:25 PM 42.5542 -72.1244 100° East 340 391 13,600 -2,300 Descending Boston Center
Mon 03:30:25 PM 42.5433 -72.0203 98° East 310 357 11,600 -2,045 Descending Boston Center
Mon 03:31:37 PM 42.5325 -71.8992 97° East 303 349 9,100 -2,273 Descending Boston Center
Mon 03:32:37 PM 42.5214 -71.7781 97° East 279 321 6,600 -1,500 Descending Boston Center
Mon 03:33:37 PM 42.5147 -71.6881 96° East 268 308 6,100 -649 Descending Boston Center
Mon 03:34:28 PM 42.5000 -71.6000 103° East 253 291 5,400 -931 Descending KA90
Mon 03:35:33 PM 42.5167 -71.5000 77° East 240 276 4,300 -1,008 Descending KA90
Mon 03:36:33 PM 42.5333 -71.4167 75° East 230 265 3,300 -684 Descending KA90
Mon 03:37:27 PM 42.5333 -71.3333 90° East 204 235 3,000 -110 Descending KA90
Mon 03:38:22 PM 42.5333 -71.2667 90° East 203 234 3,100 -331 Climbing KA90
Mon 03:39:34 PM 42.5167 -71.2000 109° East 151 174 2,300 -870 Descending KA90
Mon 03:40:40 PM 42.4667 -71.2167 194° South 141 162 1,100 -950 Descending KA90
Mon 03:41:34 PM 42.4667 -71.2667 270° West 142 163 400 9,458 Descending KA90
Mon 03:43:37 PM 42.4347 -71.3514 243° Southwest 133 153 29,000 9,377 Climbing Boston Center
Mon 03:44:37 PM 42.4186 -71.3939 243° Southwest 133 153 29,000  Level Boston Center
Mon 03:45:37 PM 42.4042 -71.4364 245° Southwest 133 153 29,000  Level Boston Center
Mon 03:47:00 PM 42.4667 -71.2833 56° Northeast  Level FlightAware Approximate

Login

Don't have an account? Register now (free) for customized features, flight alerts, and more!